createdAt,value
2023-06-09T00:02:08.328Z,100947.53
2023-06-09T00:04:38.066Z,100954.28
2023-06-09T00:07:06.982Z,100958.19
2023-06-09T00:09:35.292Z,100959.69
2023-06-09T00:12:03.514Z,100967.47
2023-06-09T00:14:31.606Z,100969.72
2023-06-09T00:17:01.443Z,100963.72
2023-06-09T00:19:30.556Z,100966.19
2023-06-09T00:22:00.888Z,100968.66
2023-06-09T00:24:29.213Z,100963.72
2023-06-09T00:26:57.594Z,100965.84
2023-06-09T00:29:25.584Z,100966.44
2023-06-09T00:31:53.631Z,100968.66
2023-06-09T00:34:21.681Z,100972.94
2023-06-09T00:36:49.645Z,100978.06
2023-06-09T00:39:19.014Z,100973.59
2023-06-09T00:41:47.027Z,100979.88
2023-06-09T00:44:15.026Z,100977.81
2023-06-09T00:46:44.862Z,100970.97
2023-06-09T00:49:13.400Z,100977.50
2023-06-09T00:51:42.152Z,100973.13
2023-06-09T00:54:11.883Z,100979.97
2023-06-09T00:56:42.226Z,100984.59
2023-06-09T00:59:10.783Z,100981.81
2023-06-09T01:01:38.859Z,100984.38
2023-06-09T01:04:06.988Z,100979.97
2023-06-09T01:06:43.513Z,100988.31
2023-06-09T01:09:22.422Z,100987.50
2023-06-09T01:12:01.255Z,100985.03
2023-06-09T01:14:34.296Z,100989.75
2023-06-09T01:17:09.052Z,100994.91
2023-06-09T01:19:42.056Z,100992.91
2023-06-09T01:22:19.592Z,100994.22
2023-06-09T01:24:58.643Z,100993.53
2023-06-09T01:27:30.337Z,100998.16
2023-06-09T01:30:01.249Z,100994.75
2023-06-09T01:32:30.300Z,101000.06
2023-06-09T01:34:58.777Z,100993.66
2023-06-09T01:37:27.501Z,101002.91
2023-06-09T01:39:55.512Z,100997.34
2023-06-09T01:42:23.539Z,100998.66
2023-06-09T01:44:52.902Z,101005.88
2023-06-09T01:47:22.080Z,101003.28
2023-06-09T01:49:57.372Z,101007.44
2023-06-09T01:52:32.732Z,101000.72
2023-06-09T01:55:05.144Z,101002.13
2023-06-09T01:57:37.606Z,101005.69
2023-06-09T02:00:10.083Z,101009.94
2023-06-09T02:02:40.908Z,101005.19
2023-06-09T02:05:10.981Z,101009.69
2023-06-09T02:07:41.058Z,100999.06
2023-06-09T02:10:11.555Z,101009.25
2023-06-09T02:12:39.615Z,101006.63
2023-06-09T02:15:10.085Z,101002.03
2023-06-09T02:17:38.196Z,101015.25
2023-06-09T02:20:09.871Z,101007.34
2023-06-09T02:22:38.187Z,101010.53
2023-06-09T02:25:07.230Z,101007.44
2023-06-09T02:27:35.754Z,101007.91
2023-06-09T02:30:04.075Z,101014.28
2023-06-09T02:32:33.795Z,101007.84
2023-06-09T02:35:01.884Z,101013.41
2023-06-09T02:37:31.095Z,101010.88
2023-06-09T02:39:59.130Z,101014.56
2023-06-09T02:42:27.221Z,101012.34
2023-06-09T02:44:55.176Z,101026.53
2023-06-09T02:47:23.218Z,101017.28
2023-06-09T02:49:52.594Z,101021.78
2023-06-09T02:52:22.722Z,101028.78
2023-06-09T02:54:50.733Z,101023.09
2023-06-09T02:57:18.795Z,101030.38
2023-06-09T02:59:47.595Z,101022.34
2023-06-09T03:02:17.202Z,101028.41
2023-06-09T03:04:45.206Z,101025.91
2023-06-09T03:07:15.497Z,101034.31
2023-06-09T03:09:43.523Z,101027.97
2023-06-09T03:12:12.204Z,101036.72
2023-06-09T03:14:39.973Z,101038.03
2023-06-09T03:17:08.416Z,101048.66
2023-06-09T03:19:36.521Z,101044.28
2023-06-09T03:22:04.634Z,101050.47
2023-06-09T03:24:34.665Z,101047.25
2023-06-09T03:27:02.675Z,101056.00
2023-06-09T03:29:31.080Z,101051.84
2023-06-09T03:31:59.072Z,101052.28
2023-06-09T03:34:27.055Z,101054.19
2023-06-09T03:36:55.006Z,101057.97
2023-06-09T03:39:23.144Z,101050.50
2023-06-09T03:41:55.362Z,101053.59
2023-06-09T03:44:23.690Z,101052.28
2023-06-09T03:46:51.659Z,101053.97
2023-06-09T03:49:19.685Z,101057.72
2023-06-09T03:51:47.630Z,101066.63
2023-06-09T03:54:15.702Z,101064.84
2023-06-09T03:56:43.924Z,101060.06
2023-06-09T03:59:13.291Z,101054.16
2023-06-09T04:01:41.995Z,101056.97
2023-06-09T04:04:09.848Z,101058.50
2023-06-09T04:06:39.178Z,101062.97
2023-06-09T04:09:07.794Z,101065.66
2023-06-09T04:11:35.772Z,101072.25
2023-06-09T04:14:04.368Z,101073.31
2023-06-09T04:16:33.865Z,101070.03
2023-06-09T04:19:01.961Z,101072.78
2023-06-09T04:21:29.983Z,101069.41
2023-06-09T04:23:58.733Z,101076.69
2023-06-09T04:26:27.133Z,101074.03
2023-06-09T04:28:55.656Z,101074.69
2023-06-09T04:31:24.667Z,101078.66
2023-06-09T04:33:55.430Z,101073.88
2023-06-09T04:36:23.438Z,101071.47
2023-06-09T04:38:51.455Z,101078.72
2023-06-09T04:41:19.562Z,101080.47
2023-06-09T04:43:51.041Z,101086.56
2023-06-09T04:46:19.067Z,101091.78
2023-06-09T04:48:47.125Z,101089.97
2023-06-09T04:51:25.639Z,101083.25
2023-06-09T04:56:52.396Z,101090.78
2023-06-09T04:59:21.353Z,101083.81
2023-06-09T05:01:55.442Z,101089.59
2023-06-09T05:04:23.770Z,101086.94
2023-06-09T05:06:56.552Z,101082.09
2023-06-09T05:09:28.592Z,101084.38
2023-06-09T05:11:56.541Z,101086.66
2023-06-09T05:17:09.490Z,101089.28
2023-06-09T05:19:46.879Z,101095.06
2023-06-09T05:22:21.762Z,101090.03
2023-06-09T05:24:51.108Z,101089.19
2023-06-09T05:27:20.481Z,101096.94
2023-06-09T05:29:48.739Z,101105.75
2023-06-09T05:32:17.985Z,101107.47
2023-06-09T05:34:47.717Z,101106.47
2023-06-09T05:37:22.496Z,101114.97
2023-06-09T05:40:06.890Z,101113.38
2023-06-09T05:42:35.160Z,101110.19
2023-06-09T05:45:04.859Z,101106.44
2023-06-09T05:47:35.569Z,101104.84
2023-06-09T05:50:08.676Z,101115.03
2023-06-09T05:52:43.372Z,101113.47
2023-06-09T05:55:18.205Z,101113.03
2023-06-09T05:57:46.396Z,101119.03
2023-06-09T06:00:17.996Z,101122.38
2023-06-09T06:02:46.133Z,101118.06
2023-06-09T06:05:15.226Z,101123.09
2023-06-09T06:07:44.560Z,101121.16
2023-06-09T06:10:13.204Z,101129.19
2023-06-09T06:12:43.750Z,101126.75
2023-06-09T06:15:14.883Z,101120.50
2023-06-09T06:17:43.166Z,101125.50
2023-06-09T06:20:13.225Z,101126.94
2023-06-09T06:22:42.718Z,101126.69
2023-06-09T06:25:18.970Z,101125.63
2023-06-09T06:27:48.480Z,101126.72
2023-06-09T06:30:17.253Z,101133.88
2023-06-09T06:32:51.314Z,101142.66
2023-06-09T06:35:26.481Z,101136.09
2023-06-09T06:37:54.533Z,101134.47
2023-06-09T06:40:24.246Z,101146.25
2023-06-09T06:42:55.273Z,101136.13
2023-06-09T06:45:27.875Z,101134.78
2023-06-09T06:47:59.425Z,101140.25
2023-06-09T06:50:43.951Z,101144.91
2023-06-09T06:53:16.322Z,101140.84
2023-06-09T06:55:48.020Z,101141.91
2023-06-09T06:58:20.024Z,101146.59
2023-06-09T07:00:48.706Z,101136.16
2023-06-09T07:03:17.484Z,101145.78
2023-06-09T07:05:50.586Z,101148.78
2023-06-09T07:08:20.343Z,101144.38
2023-06-09T07:10:55.953Z,101142.72
2023-06-09T07:13:26.691Z,101138.34
2023-06-09T07:16:01.522Z,101144.91
2023-06-09T07:18:34.411Z,101148.75
2023-06-09T07:21:13.962Z,101152.59
2023-06-09T07:23:42.296Z,101145.44
2023-06-09T07:26:52.376Z,101146.00
2023-06-09T07:32:57.242Z,101151.16
2023-06-09T07:35:20.977Z,101145.97
2023-06-09T07:37:59.474Z,101148.94
2023-06-09T07:40:29.817Z,101142.88
2023-06-09T07:43:00.738Z,101146.72
2023-06-09T07:45:28.892Z,101140.94
2023-06-09T07:47:57.144Z,101146.41
2023-06-09T07:50:25.296Z,101134.34
2023-06-09T07:52:53.450Z,101140.38
2023-06-09T07:55:21.588Z,101140.38
2023-06-09T07:57:49.673Z,101132.94
2023-06-09T08:00:20.632Z,101129.66
2023-06-09T08:02:51.777Z,101122.75
2023-06-09T08:05:19.800Z,101126.28
2023-06-09T08:07:47.898Z,101128.72
2023-06-09T08:10:15.960Z,101130.91
2023-06-09T08:12:43.958Z,101129.50
2023-06-09T08:15:12.860Z,101130.56
2023-06-09T08:17:42.253Z,101120.97
2023-06-09T08:20:12.870Z,101125.34
2023-06-09T08:22:40.834Z,101120.66
2023-06-09T08:25:17.519Z,101124.75
2023-06-09T08:27:45.489Z,101130.75
2023-06-09T08:30:13.821Z,101130.75
2023-06-09T08:32:47.992Z,101121.91
2023-06-09T08:35:18.511Z,101126.00
2023-06-09T08:37:46.633Z,101124.09
2023-06-09T08:40:15.010Z,101130.75
2023-06-09T08:42:50.132Z,101128.00
2023-06-09T08:45:26.122Z,101136.69
2023-06-09T08:47:59.052Z,101127.53
2023-06-09T08:50:30.395Z,101134.94
2023-06-09T08:53:01.745Z,101129.91
2023-06-09T08:55:30.319Z,101129.06
2023-06-09T08:57:58.360Z,101128.34
2023-06-09T09:00:28.165Z,101128.00
2023-06-09T09:02:57.918Z,101134.56
2023-06-09T09:05:26.051Z,101130.97
2023-06-09T09:07:54.005Z,101127.59
2023-06-09T09:10:22.594Z,101121.50
2023-06-09T09:12:52.432Z,101124.81
2023-06-09T09:15:21.282Z,101121.44
2023-06-09T09:17:49.775Z,101130.09
2023-06-09T09:20:20.484Z,101123.00
2023-06-09T09:22:49.888Z,101124.91
2023-06-09T09:25:26.796Z,101126.56
2023-06-09T09:28:06.233Z,101124.66
2023-06-09T09:30:48.521Z,101127.88
2023-06-09T09:33:19.778Z,101126.25
2023-06-09T09:35:51.655Z,101121.53
2023-06-09T09:38:21.569Z,101118.31
2023-06-09T09:40:51.997Z,101113.56
2023-06-09T09:43:21.254Z,101112.03
2023-06-09T09:45:51.809Z,101114.22
2023-06-09T09:48:23.060Z,101106.31
2023-06-09T09:50:54.005Z,101101.63
2023-06-09T09:53:24.308Z,101109.47
2023-06-09T09:55:54.434Z,101108.78
2023-06-09T09:58:30.799Z,101113.84
2023-06-09T10:01:01.347Z,101102.44
2023-06-09T10:03:30.122Z,101098.75
2023-06-09T10:06:03.033Z,101098.53
2023-06-09T10:08:32.627Z,101110.34
2023-06-09T10:11:02.257Z,101100.13
2023-06-09T10:13:31.221Z,101101.41
2023-06-09T10:16:00.601Z,101100.00
2023-06-09T10:18:29.065Z,101096.34
2023-06-09T10:20:57.503Z,101100.28
2023-06-09T10:23:29.638Z,101104.56
2023-06-09T10:25:58.405Z,101090.69
2023-06-09T10:28:26.942Z,101089.19
2023-06-09T10:30:56.125Z,101092.28
2023-06-09T10:33:27.962Z,101096.13
2023-06-09T10:35:59.254Z,101088.66
2023-06-09T10:38:32.788Z,101098.53
2023-06-09T10:41:11.314Z,101097.22
2023-06-09T10:44:10.458Z,101089.38
2023-06-09T10:46:44.092Z,101093.75
2023-06-09T10:49:40.184Z,101082.25
2023-06-09T10:52:11.453Z,101087.47
2023-06-09T10:54:41.009Z,101086.78
2023-06-09T10:57:38.883Z,101061.28
2023-06-09T11:00:12.634Z,101064.25
2023-06-09T11:02:42.551Z,101068.56
2023-06-09T11:05:12.596Z,101064.63
2023-06-09T11:07:47.111Z,101064.25
2023-06-09T11:10:38.868Z,101065.28
2023-06-09T11:13:41.467Z,101061.41
2023-06-09T11:16:10.977Z,101065.50
2023-06-09T11:18:40.190Z,101061.16
2023-06-09T11:21:26.874Z,101062.06
2023-06-09T11:24:05.439Z,101059.63
2023-06-09T11:26:38.030Z,101059.81
2023-06-09T11:29:21.755Z,101060.38
2023-06-09T11:31:52.959Z,101052.56
2023-06-09T11:35:05.978Z,101054.41
2023-06-09T11:37:34.201Z,101058.44
2023-06-09T11:40:05.652Z,101054.41
2023-06-09T11:42:35.513Z,101048.00
2023-06-09T11:45:04.752Z,101050.66
2023-06-09T11:47:33.272Z,101050.03
2023-06-09T11:50:13.399Z,101048.38
2023-06-09T11:52:43.245Z,101035.69
2023-06-09T11:55:14.408Z,101032.16
2023-06-09T11:57:43.935Z,101040.41
2023-06-09T12:00:16.509Z,101037.88
2023-06-09T12:02:46.592Z,101035.38
2023-06-09T12:05:15.486Z,101035.38
2023-06-09T12:07:44.671Z,101031.19
2023-06-09T12:10:13.543Z,101032.06
2023-06-09T12:12:47.336Z,101032.72
2023-06-09T12:15:16.827Z,101039.88
2023-06-09T12:17:45.782Z,101041.06
2023-06-09T12:20:30.243Z,101046.78
2023-06-09T12:23:03.008Z,101041.19
2023-06-09T12:25:34.078Z,101038.63
2023-06-09T12:28:18.869Z,101034.28
2023-06-09T12:30:49.071Z,101042.16
2023-06-09T12:33:19.155Z,101044.22
2023-06-09T12:35:49.324Z,101035.56
2023-06-09T12:38:19.160Z,101039.19
2023-06-09T12:40:49.352Z,101038.22
2023-06-09T12:43:19.838Z,101040.56
2023-06-09T12:45:48.424Z,101025.56
2023-06-09T12:48:16.874Z,101033.09
2023-06-09T12:50:45.397Z,101032.03
2023-06-09T12:53:15.432Z,101032.03
2023-06-09T12:55:44.270Z,101042.81
2023-06-09T12:58:12.819Z,101035.94
2023-06-09T13:00:42.362Z,101028.44
2023-06-09T13:03:13.071Z,101030.25
2023-06-09T13:05:41.326Z,101026.53
2023-06-09T13:08:09.398Z,101031.63
2023-06-09T13:10:37.930Z,101035.88
2023-06-09T13:13:06.043Z,101019.56
2023-06-09T13:15:33.988Z,101031.31
2023-06-09T13:18:03.909Z,101039.16
2023-06-09T13:20:31.992Z,101032.59
2023-06-09T13:22:59.980Z,101019.56
2023-06-09T13:25:27.991Z,101020.06
2023-06-09T13:27:55.988Z,101029.50
2023-06-09T13:30:24.017Z,101024.81
2023-06-09T13:32:52.046Z,101020.22
2023-06-09T13:35:23.059Z,101015.69
2023-06-09T13:37:51.134Z,101021.25
2023-06-09T13:40:19.135Z,101012.41
2023-06-09T13:42:52.088Z,101005.22
2023-06-09T13:45:20.354Z,101015.03
2023-06-09T13:47:48.219Z,101009.66
2023-06-09T13:50:16.714Z,101009.31
2023-06-09T13:52:46.239Z,101000.47
2023-06-09T13:55:16.856Z,101004.94
2023-06-09T13:57:45.120Z,101000.84
2023-06-09T14:02:42.439Z,101003.94
2023-06-09T14:05:13.787Z,100995.59
2023-06-09T14:07:43.091Z,100992.53
2023-06-09T14:10:14.708Z,101001.34
2023-06-09T14:12:44.479Z,101001.66
2023-06-09T14:15:24.251Z,100995.06
2023-06-09T14:17:57.253Z,100990.78
2023-06-09T14:20:29.746Z,100997.09
2023-06-09T14:23:00.230Z,100995.88
2023-06-09T14:25:29.740Z,100994.19
2023-06-09T14:27:57.837Z,100991.81
2023-06-09T14:30:26.094Z,100988.78
2023-06-09T14:32:54.450Z,100985.50
2023-06-09T14:35:25.480Z,100996.34
2023-06-09T14:37:56.084Z,100988.22
2023-06-09T14:40:24.868Z,100992.16
2023-06-09T14:42:54.471Z,100988.31
2023-06-09T14:45:24.203Z,100995.78
2023-06-09T14:47:54.206Z,100990.63
2023-06-09T14:50:24.681Z,100984.06
2023-06-09T14:52:56.598Z,100978.13
2023-06-09T14:55:29.312Z,100990.09
2023-06-09T14:58:00.128Z,100984.78
2023-06-09T15:00:29.307Z,100983.34
2023-06-09T15:02:58.748Z,100978.16
2023-06-09T15:05:28.908Z,100977.81
2023-06-09T15:07:58.857Z,100971.97
2023-06-09T15:10:27.288Z,100980.56
2023-06-09T15:12:55.832Z,100976.50
2023-06-09T15:15:28.961Z,100978.91
2023-06-09T15:17:57.866Z,100987.03
2023-06-09T15:20:26.891Z,100989.63
2023-06-09T15:22:55.768Z,100985.38
2023-06-09T15:25:29.900Z,100984.16
2023-06-09T15:28:01.270Z,100982.63
2023-06-09T15:30:31.938Z,100987.06
2023-06-09T15:33:03.998Z,100989.81
2023-06-09T15:35:35.530Z,100990.06
2023-06-09T15:38:08.417Z,100995.31
2023-06-09T15:40:40.026Z,100997.03
2023-06-09T15:43:08.127Z,101003.38
2023-06-09T15:45:40.926Z,100989.78
2023-06-09T15:48:09.933Z,100982.81
2023-06-09T15:50:39.268Z,100983.28
2023-06-09T15:53:09.325Z,100984.78
2023-06-09T15:55:38.007Z,100980.84
2023-06-09T15:58:09.203Z,100988.78
2023-06-09T16:00:37.948Z,100985.81
2023-06-09T16:03:07.736Z,100992.56
2023-06-09T16:05:39.288Z,100983.88
2023-06-09T16:08:08.682Z,100982.34
2023-06-09T16:10:42.225Z,100982.59
2023-06-09T16:13:10.678Z,100980.03
2023-06-09T16:15:40.297Z,100987.75
2023-06-09T16:18:13.641Z,100983.16
2023-06-09T16:20:44.254Z,100974.75
2023-06-09T16:23:14.560Z,100985.09
2023-06-09T16:25:42.823Z,100983.88
2023-06-09T16:28:11.851Z,100987.78
2023-06-09T16:30:42.748Z,100988.81
2023-06-09T16:33:12.370Z,100989.44
2023-06-09T16:35:41.029Z,100975.97
2023-06-09T16:38:09.566Z,100981.19
2023-06-09T16:40:37.985Z,100975.66
2023-06-09T16:43:06.056Z,100990.28
2023-06-09T16:45:34.080Z,100981.94
2023-06-09T16:48:02.377Z,100994.38
2023-06-09T16:50:31.852Z,100988.38
2023-06-09T16:53:01.136Z,100984.47
2023-06-09T16:55:29.141Z,100988.78
2023-06-09T16:57:57.175Z,100992.38
2023-06-09T17:00:25.050Z,100991.31
2023-06-09T17:02:55.696Z,100988.34
2023-06-09T17:05:24.393Z,100995.63
2023-06-09T17:07:53.552Z,100987.19
2023-06-09T17:10:22.802Z,100987.72
2023-06-09T17:12:50.893Z,100982.34
2023-06-09T17:15:18.738Z,100979.53
2023-06-09T17:17:46.776Z,100984.16
2023-06-09T17:20:14.600Z,100990.41
2023-06-09T17:22:43.794Z,100983.22
2023-06-09T17:25:13.395Z,100986.94
2023-06-09T17:27:41.448Z,100981.78
2023-06-09T17:30:14.083Z,100991.75
2023-06-09T17:32:43.374Z,100985.22
2023-06-09T17:35:12.124Z,100987.34
2023-06-09T17:37:40.379Z,100991.13
2023-06-09T17:40:11.109Z,100998.03
2023-06-09T17:42:40.617Z,100993.41
2023-06-09T17:45:10.710Z,100984.97
2023-06-09T17:47:39.353Z,100982.13
2023-06-09T17:50:08.499Z,100984.63
2023-06-09T17:52:36.673Z,100991.94
2023-06-09T17:55:09.285Z,100999.72
2023-06-09T17:57:39.185Z,100993.38
2023-06-09T18:00:10.389Z,100996.50
2023-06-09T18:02:38.493Z,101003.56
2023-06-09T18:05:07.303Z,100992.44
2023-06-09T18:07:35.547Z,101003.34
2023-06-09T18:10:04.851Z,100998.75
2023-06-09T18:12:32.965Z,100997.97
2023-06-09T18:15:00.964Z,101001.38
2023-06-09T18:17:30.624Z,101005.81
2023-06-09T18:19:58.637Z,101005.13
2023-06-09T18:22:26.684Z,101001.94
2023-06-09T18:24:54.942Z,101007.09
2023-06-09T18:27:23.017Z,101005.59
2023-06-09T18:29:51.019Z,101011.53
2023-06-09T18:32:18.778Z,101010.63
2023-06-09T18:34:50.052Z,101016.59
2023-06-09T18:37:18.394Z,101016.06
2023-06-09T18:39:46.408Z,101022.88
2023-06-09T18:42:15.508Z,101020.25
2023-06-09T18:44:43.591Z,101028.56
2023-06-09T18:47:12.962Z,101029.03
2023-06-09T18:49:41.008Z,101029.19
2023-06-09T18:52:11.449Z,101040.78
2023-06-09T18:54:39.483Z,101029.91
2023-06-09T18:57:08.993Z,101036.13
2023-06-09T18:59:37.165Z,101032.09
2023-06-09T19:02:05.542Z,101032.09
2023-06-09T19:04:33.535Z,101040.16
2023-06-09T19:07:01.324Z,101040.31
2023-06-09T19:09:31.334Z,101043.75
2023-06-09T19:11:59.403Z,101054.72
2023-06-09T19:14:27.202Z,101050.88
2023-06-09T19:16:58.402Z,101054.56
2023-06-09T19:19:27.680Z,101061.41
2023-06-09T19:21:56.422Z,101061.75
2023-06-09T19:24:24.443Z,101065.00
2023-06-09T19:26:53.849Z,101069.72
2023-06-09T19:29:21.871Z,101069.31
2023-06-09T19:31:58.676Z,101074.69
2023-06-09T19:34:26.695Z,101073.47
2023-06-09T19:37:01.240Z,101072.38
2023-06-09T19:39:32.000Z,101072.19
2023-06-09T19:42:01.421Z,101081.31
2023-06-09T19:44:29.478Z,101078.88
2023-06-09T19:46:59.377Z,101086.81
2023-06-09T19:49:27.407Z,101082.22
2023-06-09T19:51:55.435Z,101081.66
2023-06-09T19:54:23.516Z,101089.47
2023-06-09T19:56:53.139Z,101094.56
2023-06-09T19:59:22.569Z,101088.47
2023-06-09T20:01:50.601Z,101100.94
2023-06-09T20:04:18.957Z,101104.47
2023-06-09T20:06:46.829Z,101096.94
2023-06-09T20:09:14.980Z,101099.50
2023-06-09T20:11:43.276Z,101112.56
2023-06-09T20:14:11.125Z,101115.50
2023-06-09T20:16:41.041Z,101118.59
2023-06-09T20:19:09.092Z,101114.59
2023-06-09T20:21:37.501Z,101113.72
2023-06-09T20:24:06.430Z,101121.03
2023-06-09T20:26:36.413Z,101127.41
2023-06-09T20:29:05.019Z,101130.59
2023-06-09T20:31:33.908Z,101128.41
2023-06-09T20:34:05.580Z,101141.81
2023-06-09T20:36:39.341Z,101129.06
2023-06-09T20:39:10.275Z,101129.34
2023-06-09T20:41:38.486Z,101136.63
2023-06-09T20:44:07.847Z,101140.56
2023-06-09T20:46:36.893Z,101145.00
2023-06-09T20:49:11.270Z,101141.72
2023-06-09T20:51:39.480Z,101139.94
2023-06-09T20:54:08.920Z,101141.41
2023-06-09T20:56:36.937Z,101146.44
2023-06-09T20:59:05.137Z,101141.53
2023-06-09T21:01:33.195Z,101147.00
2023-06-09T21:04:01.922Z,101140.22
2023-06-09T21:06:35.840Z,101150.41
2023-06-09T21:09:05.873Z,101152.66
2023-06-09T21:11:36.332Z,101157.91
2023-06-09T21:14:05.774Z,101162.63
2023-06-09T21:16:33.817Z,101157.75
2023-06-09T21:19:04.053Z,101155.88
2023-06-09T21:21:33.458Z,101160.06
2023-06-09T21:24:01.481Z,101162.56
2023-06-09T21:26:29.491Z,101159.56
2023-06-09T21:28:57.558Z,101173.91
2023-06-09T21:31:27.010Z,101170.09
2023-06-09T21:33:55.493Z,101179.47
2023-06-09T21:36:26.687Z,101173.41
2023-06-09T21:38:56.057Z,101166.28
2023-06-09T21:41:24.264Z,101180.06
2023-06-09T21:43:52.234Z,101170.19
2023-06-09T21:46:21.251Z,101177.63
2023-06-09T21:48:49.340Z,101181.19
2023-06-09T21:51:17.471Z,101181.72
2023-06-09T21:53:45.569Z,101183.38
2023-06-09T21:56:15.290Z,101180.63
2023-06-09T21:58:43.250Z,101185.59
2023-06-09T22:01:11.320Z,101182.28
2023-06-09T22:03:39.344Z,101179.00
2023-06-09T22:06:07.698Z,101187.50
2023-06-09T22:08:38.855Z,101192.19
2023-06-09T22:11:07.171Z,101189.44
2023-06-09T22:13:36.557Z,101190.25
2023-06-09T22:16:07.095Z,101186.41
2023-06-09T22:18:35.111Z,101198.78
2023-06-09T22:21:03.067Z,101192.72
2023-06-09T22:23:31.846Z,101197.34
2023-06-09T22:26:01.890Z,101200.63
2023-06-09T22:28:30.178Z,101196.50
2023-06-09T22:30:59.568Z,101192.13
2023-06-09T22:33:28.632Z,101209.13
2023-06-09T22:35:59.284Z,101214.31
2023-06-09T22:38:27.244Z,101212.66
2023-06-09T22:40:55.311Z,101217.88
2023-06-09T22:43:24.330Z,101214.00
2023-06-09T22:45:52.658Z,101220.03
2023-06-09T22:48:22.113Z,101216.72
2023-06-09T22:50:50.151Z,101222.47
2023-06-09T22:53:18.172Z,101230.66
2023-06-09T22:55:46.198Z,101227.66
2023-06-09T22:58:14.171Z,101231.22
2023-06-09T23:00:42.116Z,101244.91
2023-06-09T23:03:10.130Z,101236.91
2023-06-09T23:05:42.664Z,101236.91
2023-06-09T23:08:11.190Z,101245.09
2023-06-09T23:10:38.936Z,101246.19
2023-06-09T23:13:07.461Z,101245.03
2023-06-09T23:15:35.263Z,101251.91
2023-06-09T23:18:15.095Z,101249.69
2023-06-09T23:20:44.610Z,101251.34
2023-06-09T23:23:16.127Z,101254.28
2023-06-09T23:25:44.354Z,101254.28
2023-06-09T23:28:12.326Z,101252.34
2023-06-09T23:30:40.322Z,101256.41
2023-06-09T23:33:08.342Z,101256.91
2023-06-09T23:35:37.742Z,101259.06
2023-06-09T23:38:07.243Z,101264.28
2023-06-09T23:40:35.312Z,101251.34
2023-06-09T23:43:04.522Z,101250.44
2023-06-09T23:45:32.674Z,101254.22
2023-06-09T23:48:03.156Z,101257.22
2023-06-09T23:50:31.234Z,101261.88
2023-06-09T23:52:59.219Z,101258.81
2023-06-09T23:55:28.555Z,101264.00
2023-06-09T23:57:56.481Z,101266.69
